»·PEaware :: UAL1221 KSFO-KSNA

UAL1221 :: KSFO-KSNA

FLIGHT INFORMATION

Flight Status: Arrived
Operator:
United Airlines
More flights by this operator :: More flights under this callsign
Pilot: Manny R. (10936)
Aircraft: BOEING 737-800
(B738)
More flights by this aircraft type
Origin: KSFO San Francisco Intl
United States
Destination: KSNA John Wayne-Orange Co
United States
More flights between these airports :: More routes between these airports
Route: OFFSH1 MCKEY TILLT TILLT2
File this flight plan on PilotEdge
Remarks:
Altitude:
(Current/Filed)
37,000ft
Speed:
(Current/Filed)
451kts
Departed: 13-Apr-18 07:38 PM
Arrived: 13-Apr-18 09:06 PM
Distance/Time
Traveled:
323nm/1:28
Distance/Time
To Go:
Arrived

Flight Plot

Page will automatically refresh every two minutes.

Flight plan parsing failed; only flown route is shown


Map Options




Map Legend


Flown Route
Filed Route
Departure Airport
Arrival Airport
Navaid (VOR, NDB)
Fix

Horizontal Profiles

Position Reports

Time Latitude Longitude Heading Altitude Ground
Speed
13-Apr-18 19:08 37.619754 -122.384004 213 20ft 0kts
13-Apr-18 19:09 37.619754 -122.384004 213 20ft 0kts
13-Apr-18 19:10 37.619754 -122.384004 213 20ft 0kts
13-Apr-18 19:11 37.619754 -122.384004 213 20ft 0kts
13-Apr-18 19:12 37.619754 -122.384004 213 20ft 0kts
13-Apr-18 19:13 37.619754 -122.384004 213 20ft 0kts
13-Apr-18 19:14 37.619754 -122.384004 213 20ft 0kts
13-Apr-18 19:15 37.619754 -122.384004 213 20ft 0kts
13-Apr-18 19:16 37.619754 -122.384004 213 20ft 0kts
13-Apr-18 19:17 37.619754 -122.384004 213 20ft 0kts
13-Apr-18 19:18 37.619754 -122.384004 213 20ft 0kts
13-Apr-18 19:19 37.619754 -122.384004 213 20ft 0kts
13-Apr-18 19:20 37.619754 -122.384004 213 20ft 0kts
13-Apr-18 19:21 37.619754 -122.384004 213 20ft 0kts
13-Apr-18 19:22 37.619754 -122.384004 213 20ft 0kts
13-Apr-18 19:23 37.619754 -122.384004 213 20ft 0kts
13-Apr-18 19:24 37.619754 -122.384004 213 20ft 0kts
13-Apr-18 19:25 37.619802 -122.383963 214 20ft 2kts
13-Apr-18 19:26 37.620155 -122.383744 179 20ft 2kts
13-Apr-18 19:27 37.620487 -122.383984 117 20ft 1kts
13-Apr-18 19:28 37.620320 -122.383602 118 20ft 0kts
13-Apr-18 19:29 37.620320 -122.383601 118 20ft 0kts
13-Apr-18 19:30 37.620320 -122.383601 118 20ft 0kts
13-Apr-18 19:31 37.620320 -122.383601 118 20ft 0kts
13-Apr-18 19:32 37.620320 -122.383601 118 20ft 0kts
13-Apr-18 19:33 37.618150 -122.379604 158 20ft 31kts
13-Apr-18 19:34 37.610993 -122.383369 207 20ft 33kts
13-Apr-18 19:35 37.609120 -122.383521 122 20ft 0kts
13-Apr-18 19:36 37.608849 -122.382748 88 20ft 14kts
13-Apr-18 19:37 37.618069 -122.376179 27 20ft 128kts
13-Apr-18 19:38 37.649947 -122.355362 20 1634ft 189kts
13-Apr-18 19:39 37.686004 -122.379724 282 3058ft 258kts
13-Apr-18 19:40 37.660745 -122.437203 204 5946ft 268kts
13-Apr-18 19:41 37.612710 -122.459183 190 8519ft 271kts
13-Apr-18 19:42 37.556066 -122.469668 188 10354ft 303kts
13-Apr-18 19:43 37.492301 -122.480768 188 12454ft 324kts
13-Apr-18 19:44 37.424343 -122.492572 188 14738ft 335kts
13-Apr-18 19:45 37.353651 -122.504828 188 16886ft 346kts
13-Apr-18 19:46 37.273610 -122.518676 188 18986ft 359kts
13-Apr-18 19:47 37.190244 -122.533070 188 19620ft 365kts
13-Apr-18 19:48 37.104346 -122.547863 188 21770ft 373kts
13-Apr-18 19:49 37.014159 -122.563361 188 22987ft 384kts
13-Apr-18 19:50 36.923561 -122.564312 169 24268ft 388kts
13-Apr-18 19:51 36.852560 -122.545397 168 25591ft 396kts
13-Apr-18 19:52 36.761541 -122.521213 168 27323ft 400kts
13-Apr-18 19:53 36.665970 -122.496142 168 29208ft 397kts
13-Apr-18 19:54 36.572039 -122.471677 168 30856ft 394kts
13-Apr-18 19:55 36.482433 -122.448450 168 32265ft 391kts
13-Apr-18 19:56 36.399324 -122.400894 133 33495ft 389kts
13-Apr-18 19:57 36.338701 -122.312716 130 34651ft 387kts
13-Apr-18 19:58 36.283670 -122.231765 130 35605ft 385kts
13-Apr-18 19:59 36.228695 -122.151378 130 36438ft 384kts
13-Apr-18 20:00 36.169566 -122.065279 130 36988ft 384kts
13-Apr-18 20:01 36.108093 -121.976091 130 37013ft 409kts
13-Apr-18 20:02 36.046283 -121.886705 130 37012ft 434kts
13-Apr-18 20:03 35.978505 -121.788996 130 37001ft 447kts
13-Apr-18 20:04 35.908305 -121.688115 130 37000ft 448kts
13-Apr-18 20:05 35.855201 -121.612012 130 36999ft 448kts
13-Apr-18 20:06 35.789335 -121.517868 130 37000ft 448kts
13-Apr-18 20:07 35.717636 -121.415692 130 37000ft 448kts
13-Apr-18 20:08 35.651241 -121.321356 131 37000ft 448kts
13-Apr-18 20:09 35.597662 -121.245425 131 37000ft 448kts
13-Apr-18 20:10 35.529807 -121.149511 131 37000ft 448kts
13-Apr-18 20:11 35.469519 -121.051631 115 37029ft 448kts
13-Apr-18 20:12 35.416967 -120.964098 137 36997ft 448kts
13-Apr-18 20:13 35.346350 -120.886606 138 37001ft 448kts
13-Apr-18 20:14 35.278836 -120.813478 138 36999ft 448kts
13-Apr-18 20:15 35.203612 -120.732311 138 37000ft 448kts
13-Apr-18 20:16 35.135971 -120.659561 138 37000ft 448kts
13-Apr-18 20:17 35.069888 -120.588681 138 37000ft 448kts
13-Apr-18 20:18 35.002050 -120.525617 145 37002ft 448kts
13-Apr-18 20:19 34.929243 -120.466646 146 37000ft 448kts
13-Apr-18 20:20 34.832949 -120.388914 146 37000ft 448kts
13-Apr-18 20:21 34.752517 -120.324139 146 37000ft 448kts
13-Apr-18 20:22 34.674002 -120.261066 146 37000ft 448kts
13-Apr-18 20:23 34.595497 -120.198265 146 37000ft 448kts
13-Apr-18 20:24 34.516574 -120.135272 146 37000ft 448kts
13-Apr-18 20:25 34.427988 -120.064732 146 37000ft 448kts
13-Apr-18 20:26 34.349505 -120.002382 146 36999ft 447kts
13-Apr-18 20:27 34.265199 -119.935561 146 35317ft 440kts
13-Apr-18 20:28 34.183904 -119.871275 146 33140ft 447kts
13-Apr-18 20:29 34.101562 -119.806306 146 30876ft 446kts
13-Apr-18 20:30 34.035532 -119.709557 120 28979ft 426kts
13-Apr-18 20:31 33.979252 -119.596643 120 26836ft 416kts
13-Apr-18 20:32 33.928003 -119.494324 120 24850ft 403kts
13-Apr-18 20:33 33.886897 -119.412240 120 23294ft 394kts
13-Apr-18 20:34 33.838970 -119.314607 120 21452ft 382kts
13-Apr-18 20:35 33.792907 -119.221063 120 19654ft 372kts
13-Apr-18 20:36 33.743189 -119.120420 120 17735ft 362kts
13-Apr-18 20:37 33.700936 -119.035140 120 15890ft 354kts
13-Apr-18 20:38 33.656757 -118.946207 120 14237ft 337kts
13-Apr-18 20:39 33.612273 -118.856899 120 12773ft 335kts
13-Apr-18 20:40 33.569315 -118.768527 111 11380ft 328kts
13-Apr-18 20:41 33.553551 -118.675790 100 10425ft 322kts
13-Apr-18 20:42 33.539902 -118.586921 100 9860ft 322kts
13-Apr-18 20:43 33.525713 -118.497381 100 8815ft 317kts
13-Apr-18 20:44 33.517677 -118.406359 90 7673ft 314kts
13-Apr-18 20:45 33.516481 -118.328728 90 6729ft 307kts
13-Apr-18 20:46 33.538219 -118.255930 65 5818ft 300kts
13-Apr-18 20:47 33.564128 -118.181892 68 4826ft 255kts
13-Apr-18 20:48 33.594404 -118.124392 55 4771ft 247kts
13-Apr-18 20:49 33.624951 -118.071290 55 4773ft 246kts
13-Apr-18 20:50 33.654151 -118.019640 55 4026ft 244kts
13-Apr-18 20:51 33.681998 -117.970010 56 3770ft 242kts
13-Apr-18 20:52 33.714829 -117.929586 27 2940ft 223kts
13-Apr-18 20:53 33.758687 -117.903589 26 2771ft 219kts
13-Apr-18 20:54 33.796516 -117.880349 27 2771ft 219kts
13-Apr-18 20:55 33.841286 -117.852565 27 2771ft 219kts
13-Apr-18 20:56 33.885837 -117.824898 27 2771ft 219kts
13-Apr-18 20:57 33.903146 -117.777557 118 2773ft 213kts
13-Apr-18 20:58 33.860861 -117.756666 179 2763ft 205kts
13-Apr-18 20:59 33.818662 -117.778162 207 2773ft 204kts
13-Apr-18 21:00 33.782375 -117.801097 207 2331ft 169kts
13-Apr-18 21:01 33.751147 -117.820941 207 1640ft 151kts
13-Apr-18 21:02 33.722447 -117.839170 207 1004ft 151kts
13-Apr-18 21:03 33.693719 -117.857419 207 329ft 147kts
13-Apr-18 21:04 33.670155 -117.872343 207 64ft 42kts
13-Apr-18 21:05 33.667618 -117.872588 70 64ft 1kts
13-Apr-18 21:06 33.669237 -117.870789 38 64ft 18kts
13-Apr-18 21:07 33.672902 -117.867511 38 64ft 23kts
13-Apr-18 21:08 33.676738 -117.864811 27 64ft 25kts
13-Apr-18 21:09 33.677160 -117.863682 115 64ft 0kts
13-Apr-18 21:10 33.677160 -117.863682 115 64ft 0kts
13-Apr-18 21:11 33.677160 -117.863682 115 64ft 0kts
13-Apr-18 21:12 33.677160 -117.863682 115 64ft 0kts
13-Apr-18 21:13 33.677160 -117.863682 115 64ft 0kts
13-Apr-18 21:14 33.677160 -117.863682 115 64ft 0kts

Navigation Log

Ident Type
Flight plan parsing failed, navigation log unavailable